sensor_id;sensor_type;location;lat;lon;timestamp;P1;durP1;ratioP1;P2;durP2;ratioP2
65156;SDS011;52745;49.794;18.258;2023-03-16T00:01:06;14.52;;;5.70;;
65156;SDS011;52745;49.794;18.258;2023-03-16T00:03:33;17.05;;;5.63;;
65156;SDS011;52745;49.794;18.258;2023-03-16T00:06:00;11.70;;;5.80;;
65156;SDS011;52745;49.794;18.258;2023-03-16T00:08:27;11.65;;;5.78;;
65156;SDS011;52745;49.794;18.258;2023-03-16T00:10:53;12.43;;;5.45;;
65156;SDS011;52745;49.794;18.258;2023-03-16T00:13:21;14.63;;;6.18;;
65156;SDS011;52745;49.794;18.258;2023-03-16T00:15:54;14.70;;;6.28;;
65156;SDS011;52745;49.794;18.258;2023-03-16T00:18:23;11.27;;;6.28;;
65156;SDS011;52745;49.794;18.258;2023-03-16T00:20:54;12.57;;;6.50;;
65156;SDS011;52745;49.794;18.258;2023-03-16T00:23:23;16.50;;;6.28;;
65156;SDS011;52745;49.794;18.258;2023-03-16T00:25:57;14.13;;;6.38;;
65156;SDS011;52745;49.794;18.258;2023-03-16T00:28:26;12.23;;;5.88;;
65156;SDS011;52745;49.794;18.258;2023-03-16T00:30:53;10.80;;;6.28;;
65156;SDS011;52745;49.794;18.258;2023-03-16T00:33:24;13.18;;;6.10;;
65156;SDS011;52745;49.794;18.258;2023-03-16T00:35:52;12.38;;;6.07;;
65156;SDS011;52745;49.794;18.258;2023-03-16T00:38:28;17.90;;;6.88;;
65156;SDS011;52745;49.794;18.258;2023-03-16T00:41:00;15.93;;;6.47;;
65156;SDS011;52745;49.794;18.258;2023-03-16T00:43:31;13.15;;;6.15;;
65156;SDS011;52745;49.794;18.258;2023-03-16T00:46:12;15.82;;;5.95;;
65156;SDS011;52745;49.794;18.258;2023-03-16T00:48:41;12.05;;;5.60;;
65156;SDS011;52745;49.794;18.258;2023-03-16T00:51:10;10.65;;;5.20;;
65156;SDS011;52745;49.794;18.258;2023-03-16T00:53:40;11.63;;;5.47;;
65156;SDS011;52745;49.794;18.258;2023-03-16T00:56:09;12.10;;;5.43;;
65156;SDS011;52745;49.794;18.258;2023-03-16T00:58:36;14.43;;;6.05;;
65156;SDS011;52745;49.794;18.258;2023-03-16T01:01:07;10.57;;;5.20;;
65156;SDS011;52745;49.794;18.258;2023-03-16T01:03:38;14.35;;;5.40;;
65156;SDS011;52745;49.794;18.258;2023-03-16T01:06:08;14.60;;;5.45;;
65156;SDS011;52745;49.794;18.258;2023-03-16T01:08:37;11.98;;;5.43;;
65156;SDS011;52745;49.794;18.258;2023-03-16T01:11:06;13.60;;;5.40;;
65156;SDS011;52745;49.794;18.258;2023-03-16T01:13:35;12.80;;;5.22;;
65156;SDS011;52745;49.794;18.258;2023-03-16T01:16:03;10.55;;;5.80;;
65156;SDS011;52745;49.794;18.258;2023-03-16T01:18:30;14.27;;;5.38;;
65156;SDS011;52745;49.794;18.258;2023-03-16T01:21:01;20.63;;;5.40;;
65156;SDS011;52745;49.794;18.258;2023-03-16T01:23:30;12.93;;;5.75;;
65156;SDS011;52745;49.794;18.258;2023-03-16T01:25:58;11.15;;;5.43;;
65156;SDS011;52745;49.794;18.258;2023-03-16T01:28:28;14.27;;;5.65;;
65156;SDS011;52745;49.794;18.258;2023-03-16T01:30:58;13.77;;;5.80;;
65156;SDS011;52745;49.794;18.258;2023-03-16T01:33:33;11.40;;;5.63;;
65156;SDS011;52745;49.794;18.258;2023-03-16T01:36:03;13.25;;;6.20;;
65156;SDS011;52745;49.794;18.258;2023-03-16T01:38:39;17.75;;;5.88;;
65156;SDS011;52745;49.794;18.258;2023-03-16T01:41:06;14.60;;;6.32;;
65156;SDS011;52745;49.794;18.258;2023-03-16T01:43:34;17.17;;;6.55;;
65156;SDS011;52745;49.794;18.258;2023-03-16T01:48:39;12.90;;;6.22;;
65156;SDS011;52745;49.794;18.258;2023-03-16T01:54:03;16.60;;;6.30;;
65156;SDS011;52745;49.794;18.258;2023-03-16T01:56:47;15.90;;;7.20;;
65156;SDS011;52745;49.794;18.258;2023-03-16T01:59:15;14.43;;;6.80;;
65156;SDS011;52745;49.794;18.258;2023-03-16T02:01:46;16.30;;;7.72;;
65156;SDS011;52745;49.794;18.258;2023-03-16T02:07:20;10.48;;;6.13;;
65156;SDS011;52745;49.794;18.258;2023-03-16T02:09:50;15.68;;;6.95;;
65156;SDS011;52745;49.794;18.258;2023-03-16T02:12:23;16.52;;;7.32;;
65156;SDS011;52745;49.794;18.258;2023-03-16T02:14:53;19.10;;;8.02;;
65156;SDS011;52745;49.794;18.258;2023-03-16T02:17:21;13.43;;;6.93;;
65156;SDS011;52745;49.794;18.258;2023-03-16T02:22:23;13.65;;;7.15;;
65156;SDS011;52745;49.794;18.258;2023-03-16T02:24:53;18.52;;;8.65;;
65156;SDS011;52745;49.794;18.258;2023-03-16T02:27:30;13.05;;;6.93;;
65156;SDS011;52745;49.794;18.258;2023-03-16T02:30:17;26.55;;;12.23;;
65156;SDS011;52745;49.794;18.258;2023-03-16T02:32:59;20.85;;;8.57;;
65156;SDS011;52745;49.794;18.258;2023-03-16T02:35:27;18.40;;;7.65;;
65156;SDS011;52745;49.794;18.258;2023-03-16T02:37:54;17.70;;;8.15;;
65156;SDS011;52745;49.794;18.258;2023-03-16T02:40:32;31.05;;;11.68;;
65156;SDS011;52745;49.794;18.258;2023-03-16T02:45:51;14.02;;;7.07;;
65156;SDS011;52745;49.794;18.258;2023-03-16T02:48:26;14.07;;;6.78;;
65156;SDS011;52745;49.794;18.258;2023-03-16T02:50:58;17.83;;;6.60;;
65156;SDS011;52745;49.794;18.258;2023-03-16T02:53:26;16.40;;;7.03;;
65156;SDS011;52745;49.794;18.258;2023-03-16T02:55:55;17.45;;;6.72;;
65156;SDS011;52745;49.794;18.258;2023-03-16T02:58:22;11.13;;;6.10;;
65156;SDS011;52745;49.794;18.258;2023-03-16T03:00:49;14.25;;;6.28;;
65156;SDS011;52745;49.794;18.258;2023-03-16T03:03:17;13.85;;;6.85;;
65156;SDS011;52745;49.794;18.258;2023-03-16T03:05:43;12.32;;;6.20;;
65156;SDS011;52745;49.794;18.258;2023-03-16T03:08:10;14.82;;;6.43;;
65156;SDS011;52745;49.794;18.258;2023-03-16T03:10:38;14.52;;;6.32;;
65156;SDS011;52745;49.794;18.258;2023-03-16T03:13:06;16.65;;;6.50;;
65156;SDS011;52745;49.794;18.258;2023-03-16T03:15:33;12.65;;;6.78;;
65156;SDS011;52745;49.794;18.258;2023-03-16T03:18:06;13.02;;;7.03;;
65156;SDS011;52745;49.794;18.258;2023-03-16T03:20:33;16.80;;;7.70;;
65156;SDS011;52745;49.794;18.258;2023-03-16T03:23:00;17.45;;;6.93;;
65156;SDS011;52745;49.794;18.258;2023-03-16T03:25:28;17.48;;;7.15;;
65156;SDS011;52745;49.794;18.258;2023-03-16T03:27:55;17.08;;;7.18;;
65156;SDS011;52745;49.794;18.258;2023-03-16T03:30:23;13.30;;;6.95;;
65156;SDS011;52745;49.794;18.258;2023-03-16T03:32:50;15.20;;;6.90;;
65156;SDS011;52745;49.794;18.258;2023-03-16T03:35:21;18.65;;;7.15;;
65156;SDS011;52745;49.794;18.258;2023-03-16T03:37:48;20.58;;;7.60;;
65156;SDS011;52745;49.794;18.258;2023-03-16T03:40:17;20.23;;;9.48;;
65156;SDS011;52745;49.794;18.258;2023-03-16T03:42:47;44.28;;;17.52;;
65156;SDS011;52745;49.794;18.258;2023-03-16T03:45:14;16.70;;;8.05;;
65156;SDS011;52745;49.794;18.258;2023-03-16T03:47:42;17.27;;;8.15;;
65156;SDS011;52745;49.794;18.258;2023-03-16T03:50:13;17.30;;;7.55;;
65156;SDS011;52745;49.794;18.258;2023-03-16T03:52:53;16.27;;;7.70;;
65156;SDS011;52745;49.794;18.258;2023-03-16T03:55:20;13.30;;;6.97;;
65156;SDS011;52745;49.794;18.258;2023-03-16T03:57:46;17.25;;;7.90;;
65156;SDS011;52745;49.794;18.258;2023-03-16T04:00:13;17.23;;;7.13;;
65156;SDS011;52745;49.794;18.258;2023-03-16T04:02:41;16.98;;;7.60;;
65156;SDS011;52745;49.794;18.258;2023-03-16T04:05:16;15.52;;;7.95;;
65156;SDS011;52745;49.794;18.258;2023-03-16T04:07:44;18.67;;;7.72;;
65156;SDS011;52745;49.794;18.258;2023-03-16T04:10:12;41.53;;;18.73;;
65156;SDS011;52745;49.794;18.258;2023-03-16T04:12:42;18.05;;;8.93;;
65156;SDS011;52745;49.794;18.258;2023-03-16T04:15:11;17.83;;;8.60;;
65156;SDS011;52745;49.794;18.258;2023-03-16T04:17:51;21.08;;;7.60;;
65156;SDS011;52745;49.794;18.258;2023-03-16T04:20:18;22.55;;;7.80;;
65156;SDS011;52745;49.794;18.258;2023-03-16T04:22:47;17.63;;;7.90;;
65156;SDS011;52745;49.794;18.258;2023-03-16T04:25:16;18.80;;;7.72;;
65156;SDS011;52745;49.794;18.258;2023-03-16T04:27:44;20.27;;;8.65;;
65156;SDS011;52745;49.794;18.258;2023-03-16T04:30:13;20.08;;;8.50;;
65156;SDS011;52745;49.794;18.258;2023-03-16T04:32:45;17.35;;;8.05;;
65156;SDS011;52745;49.794;18.258;2023-03-16T04:35:15;15.00;;;8.18;;
65156;SDS011;52745;49.794;18.258;2023-03-16T04:37:54;19.50;;;8.48;;
65156;SDS011;52745;49.794;18.258;2023-03-16T04:40:26;21.30;;;7.85;;
65156;SDS011;52745;49.794;18.258;2023-03-16T04:43:01;16.30;;;7.47;;
65156;SDS011;52745;49.794;18.258;2023-03-16T04:45:29;15.68;;;7.63;;
65156;SDS011;52745;49.794;18.258;2023-03-16T04:47:58;21.10;;;10.55;;
65156;SDS011;52745;49.794;18.258;2023-03-16T04:50:25;27.75;;;9.95;;
65156;SDS011;52745;49.794;18.258;2023-03-16T04:52:54;18.58;;;7.97;;
65156;SDS011;52745;49.794;18.258;2023-03-16T04:55:21;17.73;;;7.80;;
65156;SDS011;52745;49.794;18.258;2023-03-16T04:57:49;19.00;;;7.28;;
65156;SDS011;52745;49.794;18.258;2023-03-16T05:00:16;21.27;;;7.68;;
65156;SDS011;52745;49.794;18.258;2023-03-16T05:03:12;19.08;;;7.57;;
65156;SDS011;52745;49.794;18.258;2023-03-16T05:05:39;18.42;;;8.18;;
65156;SDS011;52745;49.794;18.258;2023-03-16T05:08:08;20.60;;;8.45;;
65156;SDS011;52745;49.794;18.258;2023-03-16T05:10:38;30.15;;;8.70;;
65156;SDS011;52745;49.794;18.258;2023-03-16T05:13:05;23.92;;;9.23;;
65156;SDS011;52745;49.794;18.258;2023-03-16T05:15:33;23.13;;;9.02;;
65156;SDS011;52745;49.794;18.258;2023-03-16T05:18:14;16.30;;;8.95;;
65156;SDS011;52745;49.794;18.258;2023-03-16T05:20:41;19.25;;;9.50;;
65156;SDS011;52745;49.794;18.258;2023-03-16T05:23:08;22.88;;;8.75;;
65156;SDS011;52745;49.794;18.258;2023-03-16T05:25:41;21.87;;;9.30;;
65156;SDS011;52745;49.794;18.258;2023-03-16T05:28:10;18.80;;;9.15;;
65156;SDS011;52745;49.794;18.258;2023-03-16T05:31:00;23.48;;;9.75;;
65156;SDS011;52745;49.794;18.258;2023-03-16T05:33:35;22.70;;;10.38;;
65156;SDS011;52745;49.794;18.258;2023-03-16T05:36:06;18.70;;;9.55;;
65156;SDS011;52745;49.794;18.258;2023-03-16T05:38:34;19.15;;;9.93;;
65156;SDS011;52745;49.794;18.258;2023-03-16T05:41:02;36.22;;;16.17;;
65156;SDS011;52745;49.794;18.258;2023-03-16T05:43:50;21.35;;;10.18;;
65156;SDS011;52745;49.794;18.258;2023-03-16T05:46:18;23.73;;;9.63;;
65156;SDS011;52745;49.794;18.258;2023-03-16T05:48:45;25.17;;;10.23;;
65156;SDS011;52745;49.794;18.258;2023-03-16T05:51:14;19.73;;;9.45;;
65156;SDS011;52745;49.794;18.258;2023-03-16T05:53:42;18.17;;;8.73;;
65156;SDS011;52745;49.794;18.258;2023-03-16T05:56:19;19.05;;;8.63;;
65156;SDS011;52745;49.794;18.258;2023-03-16T05:58:46;15.32;;;7.82;;
65156;SDS011;52745;49.794;18.258;2023-03-16T06:01:13;16.63;;;8.38;;
65156;SDS011;52745;49.794;18.258;2023-03-16T06:03:42;61.58;;;29.60;;
65156;SDS011;52745;49.794;18.258;2023-03-16T06:06:14;20.63;;;8.88;;
65156;SDS011;52745;49.794;18.258;2023-03-16T06:08:52;17.13;;;9.02;;
65156;SDS011;52745;49.794;18.258;2023-03-16T06:11:21;16.58;;;7.88;;
65156;SDS011;52745;49.794;18.258;2023-03-16T06:13:48;18.10;;;7.85;;
65156;SDS011;52745;49.794;18.258;2023-03-16T06:16:15;17.65;;;7.80;;
65156;SDS011;52745;49.794;18.258;2023-03-16T06:18:42;55.65;;;25.27;;
65156;SDS011;52745;49.794;18.258;2023-03-16T06:21:10;58.05;;;26.42;;
65156;SDS011;52745;49.794;18.258;2023-03-16T06:23:38;15.13;;;6.72;;
65156;SDS011;52745;49.794;18.258;2023-03-16T06:26:06;14.27;;;7.18;;
65156;SDS011;52745;49.794;18.258;2023-03-16T06:28:35;14.52;;;7.22;;
65156;SDS011;52745;49.794;18.258;2023-03-16T06:31:02;14.73;;;6.55;;
65156;SDS011;52745;49.794;18.258;2023-03-16T06:33:33;17.63;;;6.90;;
65156;SDS011;52745;49.794;18.258;2023-03-16T06:36:00;14.48;;;6.93;;
65156;SDS011;52745;49.794;18.258;2023-03-16T06:38:41;19.35;;;6.63;;
65156;SDS011;52745;49.794;18.258;2023-03-16T06:41:14;13.43;;;6.85;;
65156;SDS011;52745;49.794;18.258;2023-03-16T06:43:40;28.30;;;12.45;;
65156;SDS011;52745;49.794;18.258;2023-03-16T06:46:08;25.50;;;9.13;;
65156;SDS011;52745;49.794;18.258;2023-03-16T06:48:36;14.40;;;6.10;;
65156;SDS011;52745;49.794;18.258;2023-03-16T06:51:04;15.93;;;6.80;;
65156;SDS011;52745;49.794;18.258;2023-03-16T06:53:34;15.40;;;6.15;;
65156;SDS011;52745;49.794;18.258;2023-03-16T06:56:01;17.25;;;6.30;;
65156;SDS011;52745;49.794;18.258;2023-03-16T06:58:31;13.82;;;5.80;;
65156;SDS011;52745;49.794;18.258;2023-03-16T07:01:00;13.00;;;5.78;;
65156;SDS011;52745;49.794;18.258;2023-03-16T07:03:27;15.88;;;7.38;;
65156;SDS011;52745;49.794;18.258;2023-03-16T07:05:59;14.70;;;7.05;;
65156;SDS011;52745;49.794;18.258;2023-03-16T07:08:26;12.98;;;5.43;;
65156;SDS011;52745;49.794;18.258;2023-03-16T07:10:52;24.10;;;6.82;;
65156;SDS011;52745;49.794;18.258;2023-03-16T07:13:20;14.43;;;6.40;;
65156;SDS011;52745;49.794;18.258;2023-03-16T07:15:49;12.80;;;5.72;;
65156;SDS011;52745;49.794;18.258;2023-03-16T07:18:18;14.23;;;5.95;;
65156;SDS011;52745;49.794;18.258;2023-03-16T07:20:46;8.90;;;4.32;;
65156;SDS011;52745;49.794;18.258;2023-03-16T07:23:13;11.02;;;4.70;;
65156;SDS011;52745;49.794;18.258;2023-03-16T07:25:41;11.65;;;4.82;;
65156;SDS011;52745;49.794;18.258;2023-03-16T07:28:10;11.70;;;4.80;;
65156;SDS011;52745;49.794;18.258;2023-03-16T07:30:40;12.65;;;5.10;;
65156;SDS011;52745;49.794;18.258;2023-03-16T07:33:09;8.70;;;4.60;;
65156;SDS011;52745;49.794;18.258;2023-03-16T07:35:38;12.05;;;4.97;;
65156;SDS011;52745;49.794;18.258;2023-03-16T07:38:04;10.10;;;4.82;;
65156;SDS011;52745;49.794;18.258;2023-03-16T07:40:32;13.18;;;5.40;;
65156;SDS011;52745;49.794;18.258;2023-03-16T07:43:06;10.35;;;4.97;;
65156;SDS011;52745;49.794;18.258;2023-03-16T07:45:35;10.40;;;5.45;;
65156;SDS011;52745;49.794;18.258;2023-03-16T07:48:03;12.93;;;4.95;;
65156;SDS011;52745;49.794;18.258;2023-03-16T07:50:41;10.57;;;4.97;;
65156;SDS011;52745;49.794;18.258;2023-03-16T07:53:09;11.07;;;4.43;;
65156;SDS011;52745;49.794;18.258;2023-03-16T07:55:38;14.43;;;4.82;;
65156;SDS011;52745;49.794;18.258;2023-03-16T07:58:05;10.95;;;4.05;;
65156;SDS011;52745;49.794;18.258;2023-03-16T08:00:34;11.60;;;5.25;;
65156;SDS011;52745;49.794;18.258;2023-03-16T08:03:01;10.20;;;4.25;;
65156;SDS011;52745;49.794;18.258;2023-03-16T08:05:29;9.15;;;4.57;;
65156;SDS011;52745;49.794;18.258;2023-03-16T08:08:00;7.30;;;3.47;;
65156;SDS011;52745;49.794;18.258;2023-03-16T08:10:28;9.02;;;4.07;;
65156;SDS011;52745;49.794;18.258;2023-03-16T08:13:07;13.27;;;3.80;;
65156;SDS011;52745;49.794;18.258;2023-03-16T08:15:36;13.27;;;4.55;;
65156;SDS011;52745;49.794;18.258;2023-03-16T08:18:11;11.70;;;3.65;;
65156;SDS011;52745;49.794;18.258;2023-03-16T08:20:38;8.65;;;3.13;;
65156;SDS011;52745;49.794;18.258;2023-03-16T08:23:05;8.45;;;3.30;;
65156;SDS011;52745;49.794;18.258;2023-03-16T08:25:37;7.28;;;2.42;;
65156;SDS011;52745;49.794;18.258;2023-03-16T08:28:13;5.68;;;2.45;;
65156;SDS011;52745;49.794;18.258;2023-03-16T08:30:47;5.15;;;2.38;;
65156;SDS011;52745;49.794;18.258;2023-03-16T08:33:42;7.45;;;3.03;;
65156;SDS011;52745;49.794;18.258;2023-03-16T08:36:14;7.05;;;3.25;;
65156;SDS011;52745;49.794;18.258;2023-03-16T08:38:45;7.03;;;2.70;;
65156;SDS011;52745;49.794;18.258;2023-03-16T08:41:12;9.32;;;3.50;;
65156;SDS011;52745;49.794;18.258;2023-03-16T08:43:42;9.77;;;2.85;;
65156;SDS011;52745;49.794;18.258;2023-03-16T08:46:09;7.38;;;2.60;;
65156;SDS011;52745;49.794;18.258;2023-03-16T08:48:46;6.43;;;2.55;;
65156;SDS011;52745;49.794;18.258;2023-03-16T08:51:15;9.50;;;3.10;;
65156;SDS011;52745;49.794;18.258;2023-03-16T08:53:42;3.65;;;2.15;;
65156;SDS011;52745;49.794;18.258;2023-03-16T08:56:10;7.20;;;2.90;;
65156;SDS011;52745;49.794;18.258;2023-03-16T08:58:40;7.38;;;2.53;;
65156;SDS011;52745;49.794;18.258;2023-03-16T09:01:11;4.97;;;2.63;;
65156;SDS011;52745;49.794;18.258;2023-03-16T09:03:40;6.63;;;2.53;;
65156;SDS011;52745;49.794;18.258;2023-03-16T09:06:08;4.68;;;2.60;;
65156;SDS011;52745;49.794;18.258;2023-03-16T09:08:35;9.40;;;3.40;;
65156;SDS011;52745;49.794;18.258;2023-03-16T09:11:09;8.82;;;3.30;;
65156;SDS011;52745;49.794;18.258;2023-03-16T09:13:38;7.20;;;3.17;;
65156;SDS011;52745;49.794;18.258;2023-03-16T09:16:06;8.00;;;2.80;;
65156;SDS011;52745;49.794;18.258;2023-03-16T09:18:34;6.65;;;2.60;;
65156;SDS011;52745;49.794;18.258;2023-03-16T09:21:02;6.70;;;2.97;;
65156;SDS011;52745;49.794;18.258;2023-03-16T09:23:32;26.13;;;10.40;;
65156;SDS011;52745;49.794;18.258;2023-03-16T09:26:03;5.80;;;3.05;;
65156;SDS011;52745;49.794;18.258;2023-03-16T09:28:34;6.05;;;2.92;;
65156;SDS011;52745;49.794;18.258;2023-03-16T09:31:04;11.43;;;5.15;;
65156;SDS011;52745;49.794;18.258;2023-03-16T09:33:32;4.60;;;3.00;;
65156;SDS011;52745;49.794;18.258;2023-03-16T09:36:00;6.38;;;3.28;;
65156;SDS011;52745;49.794;18.258;2023-03-16T09:38:28;9.45;;;4.05;;
65156;SDS011;52745;49.794;18.258;2023-03-16T09:40:58;8.23;;;3.78;;
65156;SDS011;52745;49.794;18.258;2023-03-16T09:46:39;5.18;;;2.70;;
65156;SDS011;52745;49.794;18.258;2023-03-16T09:49:12;4.63;;;2.80;;
65156;SDS011;52745;49.794;18.258;2023-03-16T09:57:36;5.13;;;2.72;;
65156;SDS011;52745;49.794;18.258;2023-03-16T10:00:17;4.28;;;2.55;;
65156;SDS011;52745;49.794;18.258;2023-03-16T10:05:38;6.75;;;2.75;;
65156;SDS011;52745;49.794;18.258;2023-03-16T10:13:43;5.07;;;1.90;;
65156;SDS011;52745;49.794;18.258;2023-03-16T10:16:09;4.93;;;2.10;;
65156;SDS011;52745;49.794;18.258;2023-03-16T10:18:45;5.25;;;1.73;;
65156;SDS011;52745;49.794;18.258;2023-03-16T10:21:15;4.82;;;2.22;;
65156;SDS011;52745;49.794;18.258;2023-03-16T10:23:47;4.22;;;1.73;;
65156;SDS011;52745;49.794;18.258;2023-03-16T10:26:35;6.80;;;1.58;;
65156;SDS011;52745;49.794;18.258;2023-03-16T10:29:12;3.88;;;1.52;;
65156;SDS011;52745;49.794;18.258;2023-03-16T10:31:40;8.55;;;1.90;;
65156;SDS011;52745;49.794;18.258;2023-03-16T10:34:07;5.53;;;2.13;;
65156;SDS011;52745;49.794;18.258;2023-03-16T10:36:34;4.97;;;1.90;;
65156;SDS011;52745;49.794;18.258;2023-03-16T10:39:06;5.97;;;2.35;;
65156;SDS011;52745;49.794;18.258;2023-03-16T10:41:35;11.05;;;2.30;;
65156;SDS011;52745;49.794;18.258;2023-03-16T10:47:05;4.90;;;2.28;;
65156;SDS011;52745;49.794;18.258;2023-03-16T10:54:47;4.60;;;2.00;;
65156;SDS011;52745;49.794;18.258;2023-03-16T10:57:29;8.63;;;1.83;;
65156;SDS011;52745;49.794;18.258;2023-03-16T11:02:39;5.72;;;1.90;;
65156;SDS011;52745;49.794;18.258;2023-03-16T11:05:14;6.45;;;1.98;;
65156;SDS011;52745;49.794;18.258;2023-03-16T11:07:50;3.95;;;1.55;;
65156;SDS011;52745;49.794;18.258;2023-03-16T11:10:28;4.55;;;1.60;;
65156;SDS011;52745;49.794;18.258;2023-03-16T11:12:59;3.35;;;1.63;;
65156;SDS011;52745;49.794;18.258;2023-03-16T11:15:32;4.75;;;1.60;;
65156;SDS011;52745;49.794;18.258;2023-03-16T11:18:03;3.53;;;1.52;;
65156;SDS011;52745;49.794;18.258;2023-03-16T11:20:30;6.43;;;2.30;;
65156;SDS011;52745;49.794;18.258;2023-03-16T11:22:59;7.70;;;1.88;;
65156;SDS011;52745;49.794;18.258;2023-03-16T11:25:36;7.25;;;2.20;;
65156;SDS011;52745;49.794;18.258;2023-03-16T11:28:12;6.00;;;1.90;;
65156;SDS011;52745;49.794;18.258;2023-03-16T11:33:15;5.80;;;1.65;;
65156;SDS011;52745;49.794;18.258;2023-03-16T11:38:17;6.22;;;1.55;;
65156;SDS011;52745;49.794;18.258;2023-03-16T11:40:50;6.28;;;1.63;;
65156;SDS011;52745;49.794;18.258;2023-03-16T11:48:55;4.05;;;1.50;;
65156;SDS011;52745;49.794;18.258;2023-03-16T11:56:37;7.53;;;1.90;;
65156;SDS011;52745;49.794;18.258;2023-03-16T11:59:27;3.63;;;1.42;;
65156;SDS011;52745;49.794;18.258;2023-03-16T12:02:22;8.23;;;1.92;;
65156;SDS011;52745;49.794;18.258;2023-03-16T12:05:11;9.85;;;2.00;;
65156;SDS011;52745;49.794;18.258;2023-03-16T12:15:34;8.25;;;1.58;;
65156;SDS011;52745;49.794;18.258;2023-03-16T12:18:17;5.93;;;1.55;;
65156;SDS011;52745;49.794;18.258;2023-03-16T12:20:59;8.98;;;1.83;;
65156;SDS011;52745;49.794;18.258;2023-03-16T12:23:31;8.15;;;2.20;;
65156;SDS011;52745;49.794;18.258;2023-03-16T12:26:02;10.27;;;2.10;;
65156;SDS011;52745;49.794;18.258;2023-03-16T12:28:29;6.10;;;2.13;;
65156;SDS011;52745;49.794;18.258;2023-03-16T12:31:09;8.02;;;1.58;;
65156;SDS011;52745;49.794;18.258;2023-03-16T12:36:44;3.95;;;1.50;;
65156;SDS011;52745;49.794;18.258;2023-03-16T12:39:37;5.35;;;1.58;;
65156;SDS011;52745;49.794;18.258;2023-03-16T12:44:46;7.50;;;1.90;;
65156;SDS011;52745;49.794;18.258;2023-03-16T12:47:31;4.78;;;1.80;;
65156;SDS011;52745;49.794;18.258;2023-03-16T12:50:16;7.13;;;2.10;;
65156;SDS011;52745;49.794;18.258;2023-03-16T12:52:48;4.97;;;1.90;;
65156;SDS011;52745;49.794;18.258;2023-03-16T12:57:46;5.28;;;1.77;;
65156;SDS011;52745;49.794;18.258;2023-03-16T13:00:16;6.68;;;2.08;;
65156;SDS011;52745;49.794;18.258;2023-03-16T13:02:52;9.32;;;1.98;;
65156;SDS011;52745;49.794;18.258;2023-03-16T13:05:32;6.28;;;1.90;;
65156;SDS011;52745;49.794;18.258;2023-03-16T13:08:11;6.07;;;2.10;;
65156;SDS011;52745;49.794;18.258;2023-03-16T13:10:41;7.38;;;1.90;;
65156;SDS011;52745;49.794;18.258;2023-03-16T13:15:36;6.00;;;2.20;;
65156;SDS011;52745;49.794;18.258;2023-03-16T13:18:19;8.18;;;2.25;;
65156;SDS011;52745;49.794;18.258;2023-03-16T13:26:00;5.97;;;1.85;;
65156;SDS011;52745;49.794;18.258;2023-03-16T13:28:32;4.30;;;1.77;;
65156;SDS011;52745;49.794;18.258;2023-03-16T13:31:26;4.60;;;1.63;;
65156;SDS011;52745;49.794;18.258;2023-03-16T13:34:12;6.50;;;1.73;;
65156;SDS011;52745;49.794;18.258;2023-03-16T13:36:44;5.72;;;1.55;;
65156;SDS011;52745;49.794;18.258;2023-03-16T13:39:19;4.70;;;1.70;;
65156;SDS011;52745;49.794;18.258;2023-03-16T13:41:54;4.63;;;1.55;;
65156;SDS011;52745;49.794;18.258;2023-03-16T13:44:30;5.82;;;1.73;;
65156;SDS011;52745;49.794;18.258;2023-03-16T13:47:01;3.05;;;1.20;;
65156;SDS011;52745;49.794;18.258;2023-03-16T13:49:30;7.43;;;1.47;;
65156;SDS011;52745;49.794;18.258;2023-03-16T13:51:57;4.05;;;1.52;;
65156;SDS011;52745;49.794;18.258;2023-03-16T13:54:28;5.50;;;1.33;;
65156;SDS011;52745;49.794;18.258;2023-03-16T13:56:56;4.20;;;1.55;;
65156;SDS011;52745;49.794;18.258;2023-03-16T13:59:25;5.25;;;1.30;;
65156;SDS011;52745;49.794;18.258;2023-03-16T14:01:55;5.05;;;1.40;;
65156;SDS011;52745;49.794;18.258;2023-03-16T14:04:26;5.50;;;1.75;;
65156;SDS011;52745;49.794;18.258;2023-03-16T14:06:58;4.70;;;1.58;;
65156;SDS011;52745;49.794;18.258;2023-03-16T14:09:27;4.53;;;1.80;;
65156;SDS011;52745;49.794;18.258;2023-03-16T14:11:56;5.25;;;1.52;;
65156;SDS011;52745;49.794;18.258;2023-03-16T14:14:26;7.80;;;1.40;;
65156;SDS011;52745;49.794;18.258;2023-03-16T14:17:00;7.13;;;3.05;;
65156;SDS011;52745;49.794;18.258;2023-03-16T14:19:57;9.85;;;3.00;;
65156;SDS011;52745;49.794;18.258;2023-03-16T14:22:30;6.13;;;2.30;;
65156;SDS011;52745;49.794;18.258;2023-03-16T14:25:00;5.30;;;2.03;;
65156;SDS011;52745;49.794;18.258;2023-03-16T14:32:54;4.05;;;1.38;;
65156;SDS011;52745;49.794;18.258;2023-03-16T14:35:25;4.85;;;1.30;;
65156;SDS011;52745;49.794;18.258;2023-03-16T14:37:57;7.35;;;1.30;;
65156;SDS011;52745;49.794;18.258;2023-03-16T14:40:51;6.53;;;1.65;;
65156;SDS011;52745;49.794;18.258;2023-03-16T14:43:26;6.15;;;1.50;;
65156;SDS011;52745;49.794;18.258;2023-03-16T14:45:56;4.72;;;1.40;;
65156;SDS011;52745;49.794;18.258;2023-03-16T14:48:24;5.05;;;1.40;;
65156;SDS011;52745;49.794;18.258;2023-03-16T14:50:54;8.63;;;1.60;;
65156;SDS011;52745;49.794;18.258;2023-03-16T14:53:23;4.47;;;1.10;;
65156;SDS011;52745;49.794;18.258;2023-03-16T14:55:54;5.38;;;1.10;;
65156;SDS011;52745;49.794;18.258;2023-03-16T14:58:21;3.38;;;1.13;;
65156;SDS011;52745;49.794;18.258;2023-03-16T15:00:49;4.32;;;1.45;;
65156;SDS011;52745;49.794;18.258;2023-03-16T15:03:19;3.20;;;1.23;;
65156;SDS011;52745;49.794;18.258;2023-03-16T15:05:49;4.63;;;1.65;;
65156;SDS011;52745;49.794;18.258;2023-03-16T15:08:23;3.38;;;1.33;;
65156;SDS011;52745;49.794;18.258;2023-03-16T15:10:53;3.70;;;1.63;;
65156;SDS011;52745;49.794;18.258;2023-03-16T15:13:22;4.45;;;1.33;;
65156;SDS011;52745;49.794;18.258;2023-03-16T15:16:18;4.18;;;1.52;;
65156;SDS011;52745;49.794;18.258;2023-03-16T15:18:46;4.80;;;1.48;;
65156;SDS011;52745;49.794;18.258;2023-03-16T15:21:18;6.15;;;1.60;;
65156;SDS011;52745;49.794;18.258;2023-03-16T15:23:47;4.00;;;1.60;;
65156;SDS011;52745;49.794;18.258;2023-03-16T15:26:17;7.63;;;1.65;;
65156;SDS011;52745;49.794;18.258;2023-03-16T15:28:47;3.50;;;1.60;;
65156;SDS011;52745;49.794;18.258;2023-03-16T15:31:14;5.22;;;1.52;;
65156;SDS011;52745;49.794;18.258;2023-03-16T15:33:40;3.78;;;1.40;;
65156;SDS011;52745;49.794;18.258;2023-03-16T15:36:14;8.90;;;1.80;;
65156;SDS011;52745;49.794;18.258;2023-03-16T15:38:44;4.43;;;1.50;;
65156;SDS011;52745;49.794;18.258;2023-03-16T15:41:13;5.47;;;1.45;;
65156;SDS011;52745;49.794;18.258;2023-03-16T15:43:40;3.67;;;1.58;;
65156;SDS011;52745;49.794;18.258;2023-03-16T15:46:08;7.97;;;1.60;;
65156;SDS011;52745;49.794;18.258;2023-03-16T15:48:35;4.93;;;1.50;;
65156;SDS011;52745;49.794;18.258;2023-03-16T15:51:24;4.25;;;1.60;;
65156;SDS011;52745;49.794;18.258;2023-03-16T15:53:52;7.03;;;1.60;;
65156;SDS011;52745;49.794;18.258;2023-03-16T15:56:25;4.28;;;1.58;;
65156;SDS011;52745;49.794;18.258;2023-03-16T15:58:59;6.43;;;1.60;;
65156;SDS011;52745;49.794;18.258;2023-03-16T16:01:28;6.38;;;1.30;;
65156;SDS011;52745;49.794;18.258;2023-03-16T16:03:59;3.03;;;1.35;;
65156;SDS011;52745;49.794;18.258;2023-03-16T16:06:26;5.93;;;1.67;;
65156;SDS011;52745;49.794;18.258;2023-03-16T16:08:53;5.35;;;1.92;;
65156;SDS011;52745;49.794;18.258;2023-03-16T16:11:23;4.15;;;1.92;;
65156;SDS011;52745;49.794;18.258;2023-03-16T16:13:55;3.47;;;1.42;;
65156;SDS011;52745;49.794;18.258;2023-03-16T16:16:25;4.20;;;1.20;;